This is the latest recevied weather packets stored in our database for station/object WX7FGZ-7. If no packets are shown the sender has not sent any weather packets the latest 10 day(s).
| Time | Temp. | Humidity | Pressure | Rain* | Wind** | Luminosity | Snow |
|---|---|---|---|---|---|---|---|
| 1777385931 | 8.89° C | 34% | 1020.2 hPa | 0 mm | - | - | - |
| 1777385042 | 8.33° C | 36% | 1020 hPa | 0 mm | - | - | - |
| 1777384887 | 7.78° C | 37% | 1020.1 hPa | 0 mm | - | - | - |
| 1777384731 | 7.78° C | 37% | 1020.1 hPa | 0 mm | - | - | - |
| 1777384596 | 7.78° C | 37% | 1019.9 hPa | 0 mm | - | - | - |
| 1777384428 | 7.78° C | 37% | 1019.9 hPa | 0 mm | - | - | - |
| 1777384146 | 7.22° C | 39% | 1019.7 hPa | 0 mm | - | - | - |
| 1777383345 | 5° C | 44% | 1019.6 hPa | 0 mm | - | - | - |
| 1777383228 | 5° C | 44% | 1019.6 hPa | 0 mm | - | - | - |
| 1777382008 | 2.22° C | 50% | 1019.1 hPa | 0 mm | - | - | - |
| 1777381700 | 1.67° C | 51% | 1019 hPa | 0 mm | - | - | - |
| 1777381557 | 1.11° C | 51% | 1018.9 hPa | 0 mm | - | - | - |
| 1777381400 | 1.11° C | 51% | 1018.9 hPa | 0 mm | - | - | - |
| 1777380459 | 0.56° C | 52% | 1018.6 hPa | 0 mm | - | - | - |
| 1777380293 | 0.56° C | 52% | 1018.6 hPa | 0 mm | - | - | - |
| 1777379696 | 0.56° C | 51% | 1018.3 hPa | 0 mm | - | - | - |
| 1777379394 | 0.56° C | 52% | 1018.2 hPa | 0 mm | - | - | - |
| 1777379342 | 1.11° C | 52% | 1018.2 hPa | 0 mm | - | - | - |
| 1777379093 | 1.11° C | 52% | 1018.2 hPa | 0 mm | - | - | - |
| 1777378660 | 1.11° C | 52% | 1017.9 hPa | 0 mm | - | - | - |
| 1777378493 | 1.11° C | 52% | 1017.9 hPa | 0 mm | - | - | - |
| 1777378195 | 1.11° C | 51% | 1017.7 hPa | 0 mm | - | - | - |
| 1777377894 | 1.11° C | 50% | 1017.6 hPa | 0 mm | - | - | - |
| 1777377594 | 1.67° C | 51% | 1017.6 hPa | 0 mm | - | - | - |
| 1777375124 | 2.78° C | 48% | 1017.6 hPa | 0 mm | - | - | - |
* Rain latest hour (hover to see other rain measurements)
** Current wind speed in m/s (hover to see current wind gust speed)